sensor_id;sensor_type;location;lat;lon;timestamp;pressure;altitude;pressure_sealevel;temperature
15062;BMP180;7630;50.306;8.566;2023-04-30T00:03:28;98301.00;;;14.90
15062;BMP180;7630;50.306;8.566;2023-04-30T00:07:30;98315.00;;;15.00
15062;BMP180;7630;50.306;8.566;2023-04-30T00:11:31;98308.00;;;14.80
15062;BMP180;7630;50.306;8.566;2023-04-30T00:15:32;98302.00;;;14.90
15062;BMP180;7630;50.306;8.566;2023-04-30T00:19:34;98308.00;;;14.70
15062;BMP180;7630;50.306;8.566;2023-04-30T00:23:36;98308.00;;;14.00
15062;BMP180;7630;50.306;8.566;2023-04-30T00:27:37;98308.00;;;14.10
15062;BMP180;7630;50.306;8.566;2023-04-30T00:31:39;98309.00;;;13.70
15062;BMP180;7630;50.306;8.566;2023-04-30T00:35:41;98313.00;;;13.60
15062;BMP180;7630;50.306;8.566;2023-04-30T00:39:42;98307.00;;;13.20
15062;BMP180;7630;50.306;8.566;2023-04-30T00:43:43;98315.00;;;13.10
15062;BMP180;7630;50.306;8.566;2023-04-30T00:47:47;98310.00;;;13.10
15062;BMP180;7630;50.306;8.566;2023-04-30T00:51:48;98310.00;;;13.40
15062;BMP180;7630;50.306;8.566;2023-04-30T00:55:50;98321.00;;;13.30
15062;BMP180;7630;50.306;8.566;2023-04-30T00:59:52;98316.00;;;13.30
15062;BMP180;7630;50.306;8.566;2023-04-30T01:03:54;98319.00;;;13.20
15062;BMP180;7630;50.306;8.566;2023-04-30T01:07:55;98316.00;;;12.90
15062;BMP180;7630;50.306;8.566;2023-04-30T01:12:02;98322.00;;;12.80
15062;BMP180;7630;50.306;8.566;2023-04-30T01:20:10;98315.00;;;12.70
15062;BMP180;7630;50.306;8.566;2023-04-30T01:28:18;98321.00;;;12.30
15062;BMP180;7630;50.306;8.566;2023-04-30T01:32:20;98329.00;;;12.00
15062;BMP180;7630;50.306;8.566;2023-04-30T01:36:52;98328.00;;;11.80
15062;BMP180;7630;50.306;8.566;2023-04-30T01:41:09;98321.00;;;11.80
15062;BMP180;7630;50.306;8.566;2023-04-30T01:53:56;98330.00;;;11.90
15062;BMP180;7630;50.306;8.566;2023-04-30T01:57:59;98336.00;;;11.40
15062;BMP180;7630;50.306;8.566;2023-04-30T02:02:01;98335.00;;;11.60
15062;BMP180;7630;50.306;8.566;2023-04-30T02:06:03;98326.00;;;11.20
15062;BMP180;7630;50.306;8.566;2023-04-30T02:10:05;98335.00;;;11.30
15062;BMP180;7630;50.306;8.566;2023-04-30T02:14:07;98341.00;;;11.30
15062;BMP180;7630;50.306;8.566;2023-04-30T02:18:08;98334.00;;;11.20
15062;BMP180;7630;50.306;8.566;2023-04-30T02:22:09;98340.00;;;11.00
15062;BMP180;7630;50.306;8.566;2023-04-30T02:26:10;98260.00;;;11.00
15062;BMP180;7630;50.306;8.566;2023-04-30T02:30:11;98337.00;;;10.80
15062;BMP180;7630;50.306;8.566;2023-04-30T02:34:12;98337.00;;;10.70
15062;BMP180;7630;50.306;8.566;2023-04-30T02:38:13;98340.00;;;10.60
15062;BMP180;7630;50.306;8.566;2023-04-30T02:42:14;98344.00;;;10.50
15062;BMP180;7630;50.306;8.566;2023-04-30T02:46:16;98335.00;;;10.40
15062;BMP180;7630;50.306;8.566;2023-04-30T02:50:18;98340.00;;;10.40
15062;BMP180;7630;50.306;8.566;2023-04-30T02:54:19;98335.00;;;10.30
15062;BMP180;7630;50.306;8.566;2023-04-30T02:58:20;98333.00;;;10.20
15062;BMP180;7630;50.306;8.566;2023-04-30T03:02:22;98331.00;;;10.20
15062;BMP180;7630;50.306;8.566;2023-04-30T03:06:23;98332.00;;;10.20
15062;BMP180;7630;50.306;8.566;2023-04-30T03:10:24;98334.00;;;10.10
15062;BMP180;7630;50.306;8.566;2023-04-30T03:14:25;98331.00;;;10.20
15062;BMP180;7630;50.306;8.566;2023-04-30T03:18:27;98330.00;;;10.10
15062;BMP180;7630;50.306;8.566;2023-04-30T03:22:29;98335.00;;;10.20
15062;BMP180;7630;50.306;8.566;2023-04-30T03:26:30;98345.00;;;10.30
15062;BMP180;7630;50.306;8.566;2023-04-30T03:30:31;98350.00;;;10.20
15062;BMP180;7630;50.306;8.566;2023-04-30T03:34:32;98340.00;;;10.00
15062;BMP180;7630;50.306;8.566;2023-04-30T03:38:33;98351.00;;;9.90
15062;BMP180;7630;50.306;8.566;2023-04-30T03:42:35;98347.00;;;10.00
15062;BMP180;7630;50.306;8.566;2023-04-30T03:46:36;98340.00;;;9.80
15062;BMP180;7630;50.306;8.566;2023-04-30T03:50:37;98341.00;;;10.10
15062;BMP180;7630;50.306;8.566;2023-04-30T03:54:38;98344.00;;;10.00
15062;BMP180;7630;50.306;8.566;2023-04-30T03:58:39;98337.00;;;10.00
15062;BMP180;7630;50.306;8.566;2023-04-30T04:02:40;98345.00;;;9.90
15062;BMP180;7630;50.306;8.566;2023-04-30T04:06:42;98339.00;;;9.90
15062;BMP180;7630;50.306;8.566;2023-04-30T04:10:43;98340.00;;;9.90
15062;BMP180;7630;50.306;8.566;2023-04-30T04:14:44;98336.00;;;9.90
15062;BMP180;7630;50.306;8.566;2023-04-30T04:18:45;98329.00;;;9.80
15062;BMP180;7630;50.306;8.566;2023-04-30T04:22:46;98337.00;;;9.70
15062;BMP180;7630;50.306;8.566;2023-04-30T04:26:47;98340.00;;;9.70
15062;BMP180;7630;50.306;8.566;2023-04-30T04:30:48;98349.00;;;9.80
15062;BMP180;7630;50.306;8.566;2023-04-30T04:34:49;98353.00;;;10.20
15062;BMP180;7630;50.306;8.566;2023-04-30T04:38:50;98358.00;;;10.20
15062;BMP180;7630;50.306;8.566;2023-04-30T04:42:52;98358.00;;;10.20
15062;BMP180;7630;50.306;8.566;2023-04-30T04:46:53;98362.00;;;10.50
15062;BMP180;7630;50.306;8.566;2023-04-30T04:50:56;98360.00;;;10.40
15062;BMP180;7630;50.306;8.566;2023-04-30T04:54:57;98361.00;;;10.30
15062;BMP180;7630;50.306;8.566;2023-04-30T04:58:58;98360.00;;;11.00
15062;BMP180;7630;50.306;8.566;2023-04-30T05:02:59;98369.00;;;11.00
15062;BMP180;7630;50.306;8.566;2023-04-30T05:07:01;98367.00;;;11.20
15062;BMP180;7630;50.306;8.566;2023-04-30T05:11:02;98368.00;;;11.20
15062;BMP180;7630;50.306;8.566;2023-04-30T05:15:04;98376.00;;;11.10
15062;BMP180;7630;50.306;8.566;2023-04-30T05:19:06;98375.00;;;11.50
15062;BMP180;7630;50.306;8.566;2023-04-30T05:23:09;98366.00;;;11.30
15062;BMP180;7630;50.306;8.566;2023-04-30T05:27:10;98375.00;;;11.70
15062;BMP180;7630;50.306;8.566;2023-04-30T05:31:11;98374.00;;;12.10
15062;BMP180;7630;50.306;8.566;2023-04-30T05:35:12;98365.00;;;12.40
15062;BMP180;7630;50.306;8.566;2023-04-30T05:39:13;98374.00;;;12.70
15062;BMP180;7630;50.306;8.566;2023-04-30T05:43:15;98372.00;;;13.00
15062;BMP180;7630;50.306;8.566;2023-04-30T05:47:16;98382.00;;;13.30
15062;BMP180;7630;50.306;8.566;2023-04-30T05:51:17;98378.00;;;13.70
15062;BMP180;7630;50.306;8.566;2023-04-30T05:55:18;98375.00;;;13.20
15062;BMP180;7630;50.306;8.566;2023-04-30T05:59:19;98380.00;;;13.30
15062;BMP180;7630;50.306;8.566;2023-04-30T06:03:20;98379.00;;;14.10
15062;BMP180;7630;50.306;8.566;2023-04-30T06:07:22;98384.00;;;13.90
15062;BMP180;7630;50.306;8.566;2023-04-30T06:11:23;98382.00;;;14.30
15062;BMP180;7630;50.306;8.566;2023-04-30T06:15:25;98372.00;;;14.20
15062;BMP180;7630;50.306;8.566;2023-04-30T06:19:26;98376.00;;;14.00
15062;BMP180;7630;50.306;8.566;2023-04-30T06:23:27;98376.00;;;11.00
15062;BMP180;7630;50.306;8.566;2023-04-30T06:27:28;98376.00;;;10.40
15062;BMP180;7630;50.306;8.566;2023-04-30T06:31:31;98378.00;;;10.30
15062;BMP180;7630;50.306;8.566;2023-04-30T06:35:32;98367.00;;;9.90
15062;BMP180;7630;50.306;8.566;2023-04-30T06:39:34;98369.00;;;11.00
15062;BMP180;7630;50.306;8.566;2023-04-30T06:43:35;98380.00;;;10.80
15062;BMP180;7630;50.306;8.566;2023-04-30T06:47:36;98371.00;;;11.00
15062;BMP180;7630;50.306;8.566;2023-04-30T06:51:39;98380.00;;;11.40
15062;BMP180;7630;50.306;8.566;2023-04-30T06:55:41;98366.00;;;10.80
15062;BMP180;7630;50.306;8.566;2023-04-30T06:59:42;98374.00;;;11.20
15062;BMP180;7630;50.306;8.566;2023-04-30T07:03:44;98382.00;;;11.80
15062;BMP180;7630;50.306;8.566;2023-04-30T07:07:45;98375.00;;;11.10
15062;BMP180;7630;50.306;8.566;2023-04-30T07:11:46;98372.00;;;12.10
15062;BMP180;7630;50.306;8.566;2023-04-30T07:15:47;98361.00;;;11.90
15062;BMP180;7630;50.306;8.566;2023-04-30T07:19:48;98373.00;;;11.50
15062;BMP180;7630;50.306;8.566;2023-04-30T07:23:49;98376.00;;;11.30
15062;BMP180;7630;50.306;8.566;2023-04-30T07:27:51;98356.00;;;11.20
15062;BMP180;7630;50.306;8.566;2023-04-30T07:31:55;98364.00;;;11.40
15062;BMP180;7630;50.306;8.566;2023-04-30T07:35:56;98362.00;;;11.40
15062;BMP180;7630;50.306;8.566;2023-04-30T07:39:58;98371.00;;;11.70
15062;BMP180;7630;50.306;8.566;2023-04-30T07:44:00;98377.00;;;11.70
15062;BMP180;7630;50.306;8.566;2023-04-30T07:48:01;98370.00;;;11.40
15062;BMP180;7630;50.306;8.566;2023-04-30T07:52:03;98368.00;;;11.60
15062;BMP180;7630;50.306;8.566;2023-04-30T07:56:04;98371.00;;;11.30
15062;BMP180;7630;50.306;8.566;2023-04-30T08:00:06;98380.00;;;12.20
15062;BMP180;7630;50.306;8.566;2023-04-30T08:04:07;98383.00;;;12.30
15062;BMP180;7630;50.306;8.566;2023-04-30T08:08:09;98386.00;;;12.40
15062;BMP180;7630;50.306;8.566;2023-04-30T08:12:10;98382.00;;;12.30
15062;BMP180;7630;50.306;8.566;2023-04-30T08:16:11;98381.00;;;11.80
15062;BMP180;7630;50.306;8.566;2023-04-30T08:20:12;98384.00;;;12.00
15062;BMP180;7630;50.306;8.566;2023-04-30T08:24:13;98388.00;;;11.90
15062;BMP180;7630;50.306;8.566;2023-04-30T08:28:14;98378.00;;;12.70
15062;BMP180;7630;50.306;8.566;2023-04-30T08:32:18;98380.00;;;12.50
15062;BMP180;7630;50.306;8.566;2023-04-30T08:36:19;98373.00;;;12.70
15062;BMP180;7630;50.306;8.566;2023-04-30T08:40:20;98376.00;;;13.00
15062;BMP180;7630;50.306;8.566;2023-04-30T08:44:26;98361.00;;;12.50
15062;BMP180;7630;50.306;8.566;2023-04-30T08:48:27;98374.00;;;12.50
15062;BMP180;7630;50.306;8.566;2023-04-30T08:52:30;98368.00;;;12.70
15062;BMP180;7630;50.306;8.566;2023-04-30T08:56:32;98368.00;;;13.00
15062;BMP180;7630;50.306;8.566;2023-04-30T09:00:36;98364.00;;;13.20
15062;BMP180;7630;50.306;8.566;2023-04-30T09:04:38;98375.00;;;13.00
15062;BMP180;7630;50.306;8.566;2023-04-30T09:12:43;98372.00;;;13.60
15062;BMP180;7630;50.306;8.566;2023-04-30T09:16:47;98370.00;;;13.20
15062;BMP180;7630;50.306;8.566;2023-04-30T09:20:56;98377.00;;;13.90
15062;BMP180;7630;50.306;8.566;2023-04-30T09:24:58;98381.00;;;13.90
15062;BMP180;7630;50.306;8.566;2023-04-30T09:28:59;98366.00;;;14.00
15062;BMP180;7630;50.306;8.566;2023-04-30T09:33:00;98380.00;;;13.50
15062;BMP180;7630;50.306;8.566;2023-04-30T09:37:02;98378.00;;;13.50
15062;BMP180;7630;50.306;8.566;2023-04-30T09:41:03;98383.00;;;13.90
15062;BMP180;7630;50.306;8.566;2023-04-30T09:45:05;98383.00;;;13.70
15062;BMP180;7630;50.306;8.566;2023-04-30T09:49:09;98370.00;;;14.00
15062;BMP180;7630;50.306;8.566;2023-04-30T09:53:14;98362.00;;;14.30
15062;BMP180;7630;50.306;8.566;2023-04-30T09:57:15;98364.00;;;15.00
15062;BMP180;7630;50.306;8.566;2023-04-30T10:01:17;98352.00;;;14.10
15062;BMP180;7630;50.306;8.566;2023-04-30T10:05:18;98324.00;;;14.20
15062;BMP180;7630;50.306;8.566;2023-04-30T10:09:20;98341.00;;;14.70
15062;BMP180;7630;50.306;8.566;2023-04-30T10:13:22;98326.00;;;14.70
15062;BMP180;7630;50.306;8.566;2023-04-30T10:17:27;98334.00;;;14.80
15062;BMP180;7630;50.306;8.566;2023-04-30T10:21:31;98329.00;;;14.80
15062;BMP180;7630;50.306;8.566;2023-04-30T10:25:32;98331.00;;;14.60
15062;BMP180;7630;50.306;8.566;2023-04-30T10:29:34;98335.00;;;15.00
15062;BMP180;7630;50.306;8.566;2023-04-30T10:33:52;98331.00;;;14.80
15062;BMP180;7630;50.306;8.566;2023-04-30T10:37:47;98339.00;;;15.00
15062;BMP180;7630;50.306;8.566;2023-04-30T10:41:50;98316.00;;;14.70
15062;BMP180;7630;50.306;8.566;2023-04-30T10:45:51;98312.00;;;14.80
15062;BMP180;7630;50.306;8.566;2023-04-30T10:50:01;98307.00;;;15.30
15062;BMP180;7630;50.306;8.566;2023-04-30T10:54:02;98308.00;;;16.00
15062;BMP180;7630;50.306;8.566;2023-04-30T10:58:22;98290.00;;;15.00
15062;BMP180;7630;50.306;8.566;2023-04-30T11:02:09;98306.00;;;15.00
15062;BMP180;7630;50.306;8.566;2023-04-30T11:06:13;98296.00;;;15.80
15062;BMP180;7630;50.306;8.566;2023-04-30T11:10:15;98292.00;;;16.30
15062;BMP180;7630;50.306;8.566;2023-04-30T11:14:22;98295.00;;;15.80
15062;BMP180;7630;50.306;8.566;2023-04-30T11:18:25;98291.00;;;15.30
15062;BMP180;7630;50.306;8.566;2023-04-30T11:22:27;98285.00;;;15.20
15062;BMP180;7630;50.306;8.566;2023-04-30T11:27:04;98281.00;;;15.40
15062;BMP180;7630;50.306;8.566;2023-04-30T11:31:03;98273.00;;;15.80
15062;BMP180;7630;50.306;8.566;2023-04-30T11:35:05;98288.00;;;15.40
15062;BMP180;7630;50.306;8.566;2023-04-30T11:39:07;98269.00;;;16.80
15062;BMP180;7630;50.306;8.566;2023-04-30T11:43:20;98263.00;;;16.20
15062;BMP180;7630;50.306;8.566;2023-04-30T11:47:21;98252.00;;;17.00
15062;BMP180;7630;50.306;8.566;2023-04-30T11:51:23;98256.00;;;16.30
15062;BMP180;7630;50.306;8.566;2023-04-30T11:55:27;98260.00;;;15.70
15062;BMP180;7630;50.306;8.566;2023-04-30T11:59:29;98261.00;;;16.30
15062;BMP180;7630;50.306;8.566;2023-04-30T12:03:31;98259.00;;;16.70
15062;BMP180;7630;50.306;8.566;2023-04-30T12:07:33;98246.00;;;15.90
15062;BMP180;7630;50.306;8.566;2023-04-30T12:11:34;98254.00;;;16.20
15062;BMP180;7630;50.306;8.566;2023-04-30T12:15:36;98248.00;;;16.50
15062;BMP180;7630;50.306;8.566;2023-04-30T12:19:39;98252.00;;;16.00
15062;BMP180;7630;50.306;8.566;2023-04-30T12:23:40;98256.00;;;17.20
15062;BMP180;7630;50.306;8.566;2023-04-30T12:27:47;98232.00;;;17.00
15062;BMP180;7630;50.306;8.566;2023-04-30T12:31:49;98222.00;;;16.30
15062;BMP180;7630;50.306;8.566;2023-04-30T12:35:53;98244.00;;;17.10
15062;BMP180;7630;50.306;8.566;2023-04-30T12:39:54;98251.00;;;18.00
15062;BMP180;7630;50.306;8.566;2023-04-30T12:44:23;98248.00;;;17.70
15062;BMP180;7630;50.306;8.566;2023-04-30T12:48:25;98238.00;;;17.40
15062;BMP180;7630;50.306;8.566;2023-04-30T12:52:26;98241.00;;;17.30
15062;BMP180;7630;50.306;8.566;2023-04-30T12:56:27;98238.00;;;17.10
15062;BMP180;7630;50.306;8.566;2023-04-30T13:00:28;98222.00;;;18.20
15062;BMP180;7630;50.306;8.566;2023-04-30T13:04:29;98217.00;;;18.60
15062;BMP180;7630;50.306;8.566;2023-04-30T13:08:30;98214.00;;;18.40
15062;BMP180;7630;50.306;8.566;2023-04-30T13:12:33;98220.00;;;17.40
15062;BMP180;7630;50.306;8.566;2023-04-30T13:16:34;98219.00;;;16.80
15062;BMP180;7630;50.306;8.566;2023-04-30T13:20:37;98203.00;;;17.50
15062;BMP180;7630;50.306;8.566;2023-04-30T13:24:39;98189.00;;;18.10
15062;BMP180;7630;50.306;8.566;2023-04-30T13:28:40;98198.00;;;18.40
15062;BMP180;7630;50.306;8.566;2023-04-30T13:32:41;98182.00;;;18.00
15062;BMP180;7630;50.306;8.566;2023-04-30T13:36:42;98167.00;;;16.90
15062;BMP180;7630;50.306;8.566;2023-04-30T13:40:43;98169.00;;;17.70
15062;BMP180;7630;50.306;8.566;2023-04-30T13:44:44;98186.00;;;17.90
15062;BMP180;7630;50.306;8.566;2023-04-30T13:48:47;98168.00;;;18.10
15062;BMP180;7630;50.306;8.566;2023-04-30T13:52:49;98177.00;;;18.00
15062;BMP180;7630;50.306;8.566;2023-04-30T13:56:50;98162.00;;;19.40
15062;BMP180;7630;50.306;8.566;2023-04-30T14:00:51;98158.00;;;18.70
15062;BMP180;7630;50.306;8.566;2023-04-30T14:04:53;98169.00;;;18.10
15062;BMP180;7630;50.306;8.566;2023-04-30T14:08:56;98165.00;;;18.20
15062;BMP180;7630;50.306;8.566;2023-04-30T14:12:57;98168.00;;;17.70
15062;BMP180;7630;50.306;8.566;2023-04-30T14:16:58;98166.00;;;17.30
15062;BMP180;7630;50.306;8.566;2023-04-30T14:20:59;98167.00;;;18.70
15062;BMP180;7630;50.306;8.566;2023-04-30T14:25:00;98137.00;;;20.50
15062;BMP180;7630;50.306;8.566;2023-04-30T14:29:01;98160.00;;;19.70
15062;BMP180;7630;50.306;8.566;2023-04-30T14:33:02;98151.00;;;17.90
15062;BMP180;7630;50.306;8.566;2023-04-30T14:37:03;98072.00;;;17.90
15062;BMP180;7630;50.306;8.566;2023-04-30T14:41:05;98154.00;;;18.20
15062;BMP180;7630;50.306;8.566;2023-04-30T14:45:07;98151.00;;;19.30
15062;BMP180;7630;50.306;8.566;2023-04-30T14:49:08;98138.00;;;17.60
15062;BMP180;7630;50.306;8.566;2023-04-30T14:53:10;98132.00;;;17.40
15062;BMP180;7630;50.306;8.566;2023-04-30T14:57:13;98130.00;;;17.90
15062;BMP180;7630;50.306;8.566;2023-04-30T15:01:14;98135.00;;;17.00
15062;BMP180;7630;50.306;8.566;2023-04-30T15:05:15;98131.00;;;18.30
15062;BMP180;7630;50.306;8.566;2023-04-30T15:09:16;98121.00;;;18.70
15062;BMP180;7630;50.306;8.566;2023-04-30T15:13:17;98111.00;;;17.30
15062;BMP180;7630;50.306;8.566;2023-04-30T15:17:18;98122.00;;;18.50
15062;BMP180;7630;50.306;8.566;2023-04-30T15:21:19;98123.00;;;19.90
15062;BMP180;7630;50.306;8.566;2023-04-30T15:25:21;98116.00;;;19.00
15062;BMP180;7630;50.306;8.566;2023-04-30T15:29:23;98106.00;;;18.30
15062;BMP180;7630;50.306;8.566;2023-04-30T15:33:24;98109.00;;;17.60
15062;BMP180;7630;50.306;8.566;2023-04-30T15:37:28;98112.00;;;17.50
15062;BMP180;7630;50.306;8.566;2023-04-30T15:41:29;98093.00;;;17.70
15062;BMP180;7630;50.306;8.566;2023-04-30T15:45:30;98107.00;;;17.50
15062;BMP180;7630;50.306;8.566;2023-04-30T15:49:33;98097.00;;;17.80
15062;BMP180;7630;50.306;8.566;2023-04-30T15:53:34;98093.00;;;18.10
15062;BMP180;7630;50.306;8.566;2023-04-30T15:57:35;98091.00;;;18.30
15062;BMP180;7630;50.306;8.566;2023-04-30T16:01:36;98088.00;;;18.50
15062;BMP180;7630;50.306;8.566;2023-04-30T16:05:38;98101.00;;;17.00
15062;BMP180;7630;50.306;8.566;2023-04-30T16:09:40;98106.00;;;17.10
15062;BMP180;7630;50.306;8.566;2023-04-30T16:13:43;98096.00;;;17.30
15062;BMP180;7630;50.306;8.566;2023-04-30T16:17:44;98084.00;;;17.30
15062;BMP180;7630;50.306;8.566;2023-04-30T16:21:45;98084.00;;;17.60
15062;BMP180;7630;50.306;8.566;2023-04-30T16:25:46;98018.00;;;18.60
15062;BMP180;7630;50.306;8.566;2023-04-30T16:29:47;98070.00;;;18.50
15062;BMP180;7630;50.306;8.566;2023-04-30T16:33:48;98069.00;;;17.50
15062;BMP180;7630;50.306;8.566;2023-04-30T16:37:49;98076.00;;;18.40
15062;BMP180;7630;50.306;8.566;2023-04-30T16:41:50;98077.00;;;17.60
15062;BMP180;7630;50.306;8.566;2023-04-30T16:45:51;98080.00;;;18.80
15062;BMP180;7630;50.306;8.566;2023-04-30T16:49:52;98075.00;;;19.80
15062;BMP180;7630;50.306;8.566;2023-04-30T16:53:55;98066.00;;;19.00
15062;BMP180;7630;50.306;8.566;2023-04-30T16:57:56;98060.00;;;19.30
15062;BMP180;7630;50.306;8.566;2023-04-30T17:01:58;98057.00;;;18.20
15062;BMP180;7630;50.306;8.566;2023-04-30T17:06:00;98058.00;;;17.80
15062;BMP180;7630;50.306;8.566;2023-04-30T17:10:01;98063.00;;;18.40
15062;BMP180;7630;50.306;8.566;2023-04-30T17:14:04;98058.00;;;17.80
15062;BMP180;7630;50.306;8.566;2023-04-30T17:18:05;98047.00;;;17.60
15062;BMP180;7630;50.306;8.566;2023-04-30T17:22:07;98057.00;;;17.80
15062;BMP180;7630;50.306;8.566;2023-04-30T17:26:08;98063.00;;;17.70
15062;BMP180;7630;50.306;8.566;2023-04-30T17:30:10;98046.00;;;17.20
15062;BMP180;7630;50.306;8.566;2023-04-30T17:34:11;98049.00;;;17.30
15062;BMP180;7630;50.306;8.566;2023-04-30T17:38:13;98048.00;;;17.50
15062;BMP180;7630;50.306;8.566;2023-04-30T17:42:14;98053.00;;;17.20
15062;BMP180;7630;50.306;8.566;2023-04-30T17:46:16;98056.00;;;16.80
15062;BMP180;7630;50.306;8.566;2023-04-30T17:50:17;98042.00;;;16.60
15062;BMP180;7630;50.306;8.566;2023-04-30T17:54:18;98054.00;;;16.80
15062;BMP180;7630;50.306;8.566;2023-04-30T17:58:19;98051.00;;;16.40
15062;BMP180;7630;50.306;8.566;2023-04-30T18:02:21;98043.00;;;16.10
15062;BMP180;7630;50.306;8.566;2023-04-30T18:06:22;98046.00;;;15.90
15062;BMP180;7630;50.306;8.566;2023-04-30T18:10:23;98043.00;;;15.70
15062;BMP180;7630;50.306;8.566;2023-04-30T18:14:24;98047.00;;;15.80
15062;BMP180;7630;50.306;8.566;2023-04-30T18:18:25;98047.00;;;15.60
15062;BMP180;7630;50.306;8.566;2023-04-30T18:22:26;98056.00;;;16.00
15062;BMP180;7630;50.306;8.566;2023-04-30T18:26:28;98039.00;;;16.00
15062;BMP180;7630;50.306;8.566;2023-04-30T18:30:29;98038.00;;;16.00
15062;BMP180;7630;50.306;8.566;2023-04-30T18:34:30;98036.00;;;15.50
15062;BMP180;7630;50.306;8.566;2023-04-30T18:38:33;98042.00;;;15.40
15062;BMP180;7630;50.306;8.566;2023-04-30T18:42:34;98031.00;;;15.40
15062;BMP180;7630;50.306;8.566;2023-04-30T18:46:37;98032.00;;;15.90
15062;BMP180;7630;50.306;8.566;2023-04-30T18:50:38;98034.00;;;15.80
15062;BMP180;7630;50.306;8.566;2023-04-30T18:54:41;98027.00;;;15.40
15062;BMP180;7630;50.306;8.566;2023-04-30T18:58:44;98038.00;;;15.50
15062;BMP180;7630;50.306;8.566;2023-04-30T19:02:45;98023.00;;;15.40
15062;BMP180;7630;50.306;8.566;2023-04-30T19:06:46;98035.00;;;15.20
15062;BMP180;7630;50.306;8.566;2023-04-30T19:10:51;98030.00;;;15.00
15062;BMP180;7630;50.306;8.566;2023-04-30T19:14:53;98037.00;;;14.20
15062;BMP180;7630;50.306;8.566;2023-04-30T19:18:55;98044.00;;;14.10
15062;BMP180;7630;50.306;8.566;2023-04-30T19:22:56;98039.00;;;14.40
15062;BMP180;7630;50.306;8.566;2023-04-30T19:26:57;98032.00;;;14.40
15062;BMP180;7630;50.306;8.566;2023-04-30T19:30:58;98041.00;;;13.90
15062;BMP180;7630;50.306;8.566;2023-04-30T19:34:59;98043.00;;;13.90
15062;BMP180;7630;50.306;8.566;2023-04-30T19:39:00;98048.00;;;14.50
15062;BMP180;7630;50.306;8.566;2023-04-30T19:43:02;98050.00;;;14.40
15062;BMP180;7630;50.306;8.566;2023-04-30T19:47:03;98056.00;;;15.70
15062;BMP180;7630;50.306;8.566;2023-04-30T19:51:04;98063.00;;;15.70
15062;BMP180;7630;50.306;8.566;2023-04-30T19:55:06;98051.00;;;15.50
15062;BMP180;7630;50.306;8.566;2023-04-30T19:59:08;98060.00;;;15.60
15062;BMP180;7630;50.306;8.566;2023-04-30T20:03:10;98057.00;;;15.90
15062;BMP180;7630;50.306;8.566;2023-04-30T20:07:11;98052.00;;;16.10
15062;BMP180;7630;50.306;8.566;2023-04-30T20:11:13;98054.00;;;15.00
15062;BMP180;7630;50.306;8.566;2023-04-30T20:15:14;98047.00;;;14.20
15062;BMP180;7630;50.306;8.566;2023-04-30T20:19:16;98060.00;;;15.20
15062;BMP180;7630;50.306;8.566;2023-04-30T20:23:17;98057.00;;;15.70
15062;BMP180;7630;50.306;8.566;2023-04-30T20:27:19;98059.00;;;15.90
15062;BMP180;7630;50.306;8.566;2023-04-30T20:31:20;98054.00;;;15.70
15062;BMP180;7630;50.306;8.566;2023-04-30T20:35:21;98066.00;;;15.60
15062;BMP180;7630;50.306;8.566;2023-04-30T20:39:23;98051.00;;;15.30
15062;BMP180;7630;50.306;8.566;2023-04-30T20:43:24;98062.00;;;14.60
15062;BMP180;7630;50.306;8.566;2023-04-30T20:47:25;98060.00;;;14.70
15062;BMP180;7630;50.306;8.566;2023-04-30T20:51:26;98058.00;;;15.00
15062;BMP180;7630;50.306;8.566;2023-04-30T20:55:29;98055.00;;;14.90
15062;BMP180;7630;50.306;8.566;2023-04-30T20:59:31;98059.00;;;15.00
15062;BMP180;7630;50.306;8.566;2023-04-30T21:03:32;98053.00;;;14.80
15062;BMP180;7630;50.306;8.566;2023-04-30T21:07:33;98052.00;;;14.90
15062;BMP180;7630;50.306;8.566;2023-04-30T21:11:34;98055.00;;;14.90
15062;BMP180;7630;50.306;8.566;2023-04-30T21:15:35;98058.00;;;15.10
15062;BMP180;7630;50.306;8.566;2023-04-30T21:19:36;98069.00;;;15.00
15062;BMP180;7630;50.306;8.566;2023-04-30T21:23:37;98064.00;;;15.20
15062;BMP180;7630;50.306;8.566;2023-04-30T21:27:39;98070.00;;;14.70
15062;BMP180;7630;50.306;8.566;2023-04-30T21:31:40;98067.00;;;15.20
15062;BMP180;7630;50.306;8.566;2023-04-30T21:35:41;98064.00;;;15.00
15062;BMP180;7630;50.306;8.566;2023-04-30T21:39:42;98064.00;;;14.90
15062;BMP180;7630;50.306;8.566;2023-04-30T21:43:43;98068.00;;;14.70
15062;BMP180;7630;50.306;8.566;2023-04-30T21:47:46;98063.00;;;14.50
15062;BMP180;7630;50.306;8.566;2023-04-30T21:51:47;98061.00;;;14.40
15062;BMP180;7630;50.306;8.566;2023-04-30T21:55:48;98061.00;;;14.40
15062;BMP180;7630;50.306;8.566;2023-04-30T21:59:49;98050.00;;;14.20
15062;BMP180;7630;50.306;8.566;2023-04-30T22:03:50;98054.00;;;14.30
15062;BMP180;7630;50.306;8.566;2023-04-30T22:07:52;98044.00;;;14.20
15062;BMP180;7630;50.306;8.566;2023-04-30T22:11:54;98050.00;;;14.00
15062;BMP180;7630;50.306;8.566;2023-04-30T22:15:55;98060.00;;;13.70
15062;BMP180;7630;50.306;8.566;2023-04-30T22:19:57;98047.00;;;14.00
15062;BMP180;7630;50.306;8.566;2023-04-30T22:23:58;98047.00;;;13.70
15062;BMP180;7630;50.306;8.566;2023-04-30T22:28:00;98044.00;;;13.70
15062;BMP180;7630;50.306;8.566;2023-04-30T22:32:01;98048.00;;;13.70
15062;BMP180;7630;50.306;8.566;2023-04-30T22:36:04;98044.00;;;13.00
15062;BMP180;7630;50.306;8.566;2023-04-30T22:40:08;98041.00;;;12.80
15062;BMP180;7630;50.306;8.566;2023-04-30T22:44:09;98040.00;;;12.30
15062;BMP180;7630;50.306;8.566;2023-04-30T22:48:11;98035.00;;;12.90
15062;BMP180;7630;50.306;8.566;2023-04-30T22:52:12;98045.00;;;13.30
15062;BMP180;7630;50.306;8.566;2023-04-30T22:56:13;98037.00;;;13.30
15062;BMP180;7630;50.306;8.566;2023-04-30T23:00:15;98031.00;;;13.00
15062;BMP180;7630;50.306;8.566;2023-04-30T23:04:18;98035.00;;;13.10
15062;BMP180;7630;50.306;8.566;2023-04-30T23:08:19;98055.00;;;13.00
15062;BMP180;7630;50.306;8.566;2023-04-30T23:12:20;98036.00;;;13.20
15062;BMP180;7630;50.306;8.566;2023-04-30T23:16:22;98022.00;;;12.90
15062;BMP180;7630;50.306;8.566;2023-04-30T23:20:23;98016.00;;;13.20
15062;BMP180;7630;50.306;8.566;2023-04-30T23:24:24;98017.00;;;13.20
15062;BMP180;7630;50.306;8.566;2023-04-30T23:28:26;98030.00;;;13.30
15062;BMP180;7630;50.306;8.566;2023-04-30T23:32:27;98014.00;;;13.10
15062;BMP180;7630;50.306;8.566;2023-04-30T23:36:28;98022.00;;;13.10
15062;BMP180;7630;50.306;8.566;2023-04-30T23:40:29;98011.00;;;12.90
15062;BMP180;7630;50.306;8.566;2023-04-30T23:44:30;98003.00;;;12.70
15062;BMP180;7630;50.306;8.566;2023-04-30T23:48:33;98001.00;;;13.00
15062;BMP180;7630;50.306;8.566;2023-04-30T23:52:34;97996.00;;;12.80
15062;BMP180;7630;50.306;8.566;2023-04-30T23:56:36;97997.00;;;12.70
